createdAt,value
2018-09-26T00:01:16.089Z,102346.00
2018-09-26T00:04:01.604Z,102336.00
2018-09-26T00:06:43.129Z,102338.00
2018-09-26T00:09:24.028Z,102338.00
2018-09-26T00:12:05.562Z,102335.00
2018-09-26T00:14:46.300Z,102332.00
2018-09-26T00:17:27.385Z,102329.00
2018-09-26T00:20:08.573Z,102329.00
2018-09-26T00:22:49.742Z,102324.00
2018-09-26T00:25:30.801Z,102335.00
2018-09-26T00:28:12.498Z,102327.00
2018-09-26T00:30:54.342Z,102334.00
2018-09-26T00:33:35.238Z,102349.00
2018-09-26T00:36:16.254Z,102346.00
2018-09-26T00:38:57.135Z,102342.00
2018-09-26T00:41:38.316Z,102337.00
2018-09-26T00:44:19.457Z,102336.00
2018-09-26T00:47:00.636Z,102336.00
2018-09-26T00:49:41.320Z,102333.00
2018-09-26T00:52:22.912Z,102334.00
2018-09-26T00:55:03.680Z,102331.00
2018-09-26T00:57:45.132Z,102342.00
2018-09-26T01:00:26.495Z,102337.00
2018-09-26T01:03:07.688Z,102328.00
2018-09-26T01:05:48.795Z,102341.00
2018-09-26T01:08:29.397Z,102335.00
2018-09-26T01:11:10.375Z,102341.00
2018-09-26T01:13:51.104Z,102340.00
2018-09-26T01:16:32.363Z,102337.00
2018-09-26T01:19:13.398Z,102331.00
2018-09-26T01:21:54.880Z,102339.00
2018-09-26T01:24:35.658Z,102343.00
2018-09-26T01:27:17.750Z,102347.00
2018-09-26T01:29:58.580Z,102350.00
2018-09-26T01:32:40.033Z,102353.00
2018-09-26T01:35:21.413Z,102348.00
2018-09-26T01:38:02.460Z,102349.00
2018-09-26T01:40:43.878Z,102346.00
2018-09-26T01:43:31.572Z,102351.00
2018-09-26T01:46:12.376Z,102354.00
2018-09-26T01:48:53.791Z,102352.00
2018-09-26T01:51:34.953Z,102350.00
2018-09-26T01:54:15.607Z,102345.00
2018-09-26T01:56:56.649Z,102341.00
2018-09-26T01:59:37.760Z,102338.00
2018-09-26T02:02:18.937Z,102336.00
2018-09-26T02:05:00.118Z,102318.00
2018-09-26T02:07:40.953Z,102315.00
2018-09-26T02:10:22.440Z,102315.00
2018-09-26T02:13:04.029Z,102308.00
2018-09-26T02:15:45.141Z,102307.00
2018-09-26T02:18:26.320Z,102295.00
2018-09-26T02:21:07.156Z,102292.00
2018-09-26T02:23:48.044Z,102291.00
2018-09-26T02:26:29.244Z,102288.00
2018-09-26T02:29:10.011Z,102274.00
2018-09-26T02:31:50.840Z,102267.00
2018-09-26T02:34:32.062Z,102269.00
2018-09-26T02:37:13.455Z,102270.00
2018-09-26T02:39:54.932Z,102262.00
2018-09-26T02:42:36.220Z,102270.00
2018-09-26T02:45:17.665Z,102271.00
2018-09-26T02:47:58.346Z,102263.00
2018-09-26T02:50:39.500Z,102265.00
2018-09-26T02:53:20.309Z,102270.00
2018-09-26T02:56:01.360Z,102268.00
2018-09-26T02:58:43.430Z,102267.00
2018-09-26T03:01:24.670Z,102269.00
2018-09-26T03:04:06.160Z,102273.00
2018-09-26T03:06:46.996Z,102272.00
2018-09-26T03:09:28.005Z,102263.00
2018-09-26T03:12:08.655Z,102260.00
2018-09-26T03:14:49.756Z,102260.00
2018-09-26T03:17:30.909Z,102258.00
2018-09-26T03:20:12.429Z,102256.00
2018-09-26T03:22:53.053Z,102253.00
2018-09-26T03:25:33.884Z,102252.00
2018-09-26T03:28:14.633Z,102254.00
2018-09-26T03:30:55.864Z,102245.00
2018-09-26T03:33:37.143Z,102245.00
2018-09-26T03:36:18.941Z,102248.00
2018-09-26T03:39:00.103Z,102244.00
2018-09-26T03:41:40.821Z,102239.00
2018-09-26T03:44:21.964Z,102231.00
2018-09-26T03:47:02.873Z,102230.00
2018-09-26T03:49:43.849Z,102220.00
2018-09-26T03:52:24.710Z,102226.00
2018-09-26T03:55:06.357Z,102224.00
2018-09-26T03:57:47.125Z,102227.00
2018-09-26T04:00:28.308Z,102237.00
2018-09-26T04:03:09.076Z,102239.00
2018-09-26T04:05:50.257Z,102231.00
2018-09-26T04:08:31.057Z,102235.00
2018-09-26T04:11:12.033Z,102242.00
2018-09-26T04:13:53.194Z,102234.00
2018-09-26T04:16:34.373Z,102228.00
2018-09-26T04:19:15.688Z,102226.00
2018-09-26T04:21:57.140Z,102223.00
2018-09-26T04:24:37.808Z,102222.00
2018-09-26T04:27:18.652Z,102230.00
2018-09-26T04:29:59.989Z,102231.00
2018-09-26T04:32:41.196Z,102233.00
2018-09-26T04:35:22.604Z,102240.00
2018-09-26T04:38:04.065Z,102243.00
2018-09-26T04:40:44.893Z,102235.00
2018-09-26T04:43:26.453Z,102234.00
2018-09-26T04:46:07.938Z,102233.00
2018-09-26T04:48:49.351Z,102228.00
2018-09-26T04:51:30.462Z,102228.00
2018-09-26T04:54:11.485Z,102231.00
2018-09-26T04:56:52.537Z,102222.00
2018-09-26T04:59:33.592Z,102229.00
2018-09-26T05:02:14.716Z,102230.00
2018-09-26T05:04:55.453Z,102233.00
2018-09-26T05:07:36.617Z,102229.00
2018-09-26T05:10:18.148Z,102224.00
2018-09-26T05:12:59.327Z,102216.00
2018-09-26T05:15:40.076Z,102219.00
2018-09-26T05:18:20.959Z,102209.00
2018-09-26T05:21:02.108Z,102206.00
2018-09-26T05:23:43.656Z,102199.00
2018-09-26T05:26:24.537Z,102195.00
2018-09-26T05:29:05.228Z,102193.00
2018-09-26T05:31:45.876Z,102192.00
2018-09-26T05:34:26.593Z,102194.00
2018-09-26T05:37:08.002Z,102198.00
2018-09-26T05:39:48.829Z,102205.00
2018-09-26T05:42:29.503Z,102205.00
2018-09-26T05:45:10.990Z,102203.00
2018-09-26T05:47:52.024Z,102205.00
2018-09-26T05:50:33.566Z,102205.00
2018-09-26T05:53:14.479Z,102209.00
2018-09-26T05:55:55.389Z,102207.00
2018-09-26T05:58:36.496Z,102201.00
2018-09-26T06:01:17.644Z,102195.00
2018-09-26T06:03:58.844Z,102197.00
2018-09-26T06:06:39.934Z,102203.00
2018-09-26T06:09:21.293Z,102191.00
2018-09-26T06:12:02.099Z,102185.00
2018-09-26T06:14:43.278Z,102178.00
2018-09-26T06:17:24.726Z,102179.00
2018-09-26T06:20:05.864Z,102181.00
2018-09-26T06:22:46.900Z,102176.00
2018-09-26T06:25:27.526Z,102165.00
2018-09-26T06:28:08.969Z,102161.00
2018-09-26T06:30:50.121Z,102162.00
2018-09-26T06:33:30.974Z,102154.00
2018-09-26T06:36:12.341Z,102153.00
2018-09-26T06:38:53.439Z,102150.00
2018-09-26T06:41:34.184Z,102139.00
2018-09-26T06:44:15.491Z,102128.00
2018-09-26T06:46:56.280Z,102115.00
2018-09-26T06:49:37.103Z,102112.00
2018-09-26T06:52:18.288Z,102105.00
2018-09-26T06:54:59.653Z,102121.00
2018-09-26T06:57:41.129Z,102128.00
2018-09-26T07:00:22.696Z,102131.00
2018-09-26T07:03:03.998Z,102139.00
2018-09-26T07:05:44.706Z,102144.00
2018-09-26T07:08:26.208Z,102136.00
2018-09-26T07:11:07.112Z,102130.00
2018-09-26T07:13:48.121Z,102133.00
2018-09-26T07:16:28.960Z,102130.00
2018-09-26T07:19:10.188Z,102134.00
2018-09-26T07:21:51.516Z,102139.00
2018-09-26T07:24:32.382Z,102136.00
2018-09-26T07:27:13.231Z,102136.00
2018-09-26T07:29:53.757Z,102124.00
2018-09-26T07:32:35.009Z,102125.00
2018-09-26T07:35:16.474Z,102140.00
2018-09-26T07:37:57.354Z,102140.00
2018-09-26T07:40:38.483Z,102137.00
2018-09-26T07:43:19.364Z,102145.00
2018-09-26T07:46:00.310Z,102129.00
2018-09-26T07:48:41.067Z,102129.00
2018-09-26T07:51:22.211Z,102136.00
2018-09-26T07:54:03.248Z,102135.00
2018-09-26T07:56:44.274Z,102131.00
2018-09-26T07:59:25.439Z,102125.00
2018-09-26T08:02:06.294Z,102122.00
2018-09-26T08:04:48.302Z,102109.00
2018-09-26T08:07:29.262Z,102109.00
2018-09-26T08:10:10.516Z,102115.00
2018-09-26T08:12:51.633Z,102117.00
2018-09-26T08:15:32.775Z,102121.00
2018-09-26T08:18:13.609Z,102107.00
2018-09-26T08:20:55.169Z,102095.00
2018-09-26T08:23:36.176Z,102092.00
2018-09-26T08:26:17.214Z,102086.00
2018-09-26T08:28:58.530Z,102068.00
2018-09-26T08:31:39.414Z,102073.00
2018-09-26T08:34:20.297Z,102072.00
2018-09-26T08:37:00.791Z,102067.00
2018-09-26T08:39:41.192Z,102060.00
2018-09-26T08:42:21.961Z,102061.00
2018-09-26T08:45:04.062Z,102049.00
2018-09-26T08:47:44.941Z,102050.00
2018-09-26T08:50:25.873Z,102046.00
2018-09-26T08:53:06.853Z,102039.00
2018-09-26T08:55:47.321Z,102044.00
2018-09-26T08:58:28.400Z,102026.00
2018-09-26T09:01:13.911Z,102030.00
2018-09-26T09:03:54.781Z,102021.00
2018-09-26T09:06:35.458Z,102014.00
2018-09-26T09:09:16.034Z,102011.00
2018-09-26T09:11:56.779Z,101997.00
2018-09-26T09:14:38.482Z,101994.00
2018-09-26T09:17:19.202Z,102012.00
2018-09-26T09:20:00.096Z,102015.00
2018-09-26T09:22:40.653Z,102002.00
2018-09-26T09:25:21.562Z,102005.00
2018-09-26T09:28:02.526Z,102009.00
2018-09-26T09:30:43.379Z,102010.00
2018-09-26T09:33:23.939Z,102002.00
2018-09-26T09:36:04.980Z,102004.00
2018-09-26T09:38:45.687Z,102011.00
2018-09-26T09:41:26.581Z,102011.00
2018-09-26T09:44:08.076Z,102007.00
2018-09-26T09:46:49.153Z,102005.00
2018-09-26T09:49:30.081Z,102012.00
2018-09-26T09:52:10.848Z,102017.00
2018-09-26T09:54:51.664Z,102015.00
2018-09-26T09:57:32.422Z,102000.00
2018-09-26T10:00:12.884Z,101987.00
2018-09-26T10:02:54.134Z,101979.00
2018-09-26T10:05:34.833Z,101965.00
2018-09-26T10:08:16.012Z,101960.00
2018-09-26T10:10:57.244Z,101961.00
2018-09-26T10:13:38.101Z,101956.00
2018-09-26T10:16:18.980Z,101946.00
2018-09-26T10:19:00.057Z,101941.00
2018-09-26T10:21:41.760Z,101933.00
2018-09-26T10:24:22.633Z,101920.00
2018-09-26T10:27:03.191Z,101932.00
2018-09-26T10:29:43.767Z,101926.00
2018-09-26T10:32:24.491Z,101913.00
2018-09-26T10:35:05.822Z,101911.00
2018-09-26T10:37:46.304Z,101917.00
2018-09-26T10:40:27.032Z,101907.00
2018-09-26T10:43:07.910Z,101907.00
2018-09-26T10:45:48.298Z,101897.00
2018-09-26T10:48:28.776Z,101908.00
2018-09-26T10:51:09.388Z,101906.00
2018-09-26T10:53:50.637Z,101898.00
2018-09-26T10:56:31.183Z,101901.00
2018-09-26T10:59:11.800Z,101893.00
2018-09-26T11:01:52.932Z,101895.00
2018-09-26T11:04:33.985Z,101875.00
2018-09-26T11:07:14.720Z,101880.00
2018-09-26T11:09:55.419Z,101875.00
2018-09-26T11:12:36.001Z,101888.00
2018-09-26T11:15:17.462Z,101865.00
2018-09-26T11:17:59.417Z,101871.00
2018-09-26T11:20:40.303Z,101872.00
2018-09-26T11:23:21.146Z,101871.00
2018-09-26T11:26:02.253Z,101859.00
2018-09-26T11:28:43.121Z,101849.00
2018-09-26T11:31:24.178Z,101845.00
2018-09-26T11:34:05.258Z,101852.00
2018-09-26T11:36:46.065Z,101840.00
2018-09-26T11:39:27.549Z,101844.00
2018-09-26T11:42:08.056Z,101830.00
2018-09-26T11:44:48.893Z,101829.00
2018-09-26T11:47:30.062Z,101822.00
2018-09-26T11:50:10.781Z,101816.00
2018-09-26T11:52:52.955Z,101820.00
2018-09-26T11:55:34.118Z,101804.00
2018-09-26T11:58:15.089Z,101804.00
2018-09-26T12:00:55.897Z,101788.00
2018-09-26T12:03:36.244Z,101796.00
2018-09-26T12:06:17.127Z,101795.00
2018-09-26T12:08:58.054Z,101791.00
2018-09-26T12:11:38.868Z,101794.00
2018-09-26T12:14:20.165Z,101789.00
2018-09-26T12:17:01.600Z,101782.00
2018-09-26T12:19:42.557Z,101779.00
2018-09-26T12:22:23.514Z,101771.00
2018-09-26T12:25:04.119Z,101766.00
2018-09-26T12:27:44.950Z,101762.00
2018-09-26T12:30:26.417Z,101760.00
2018-09-26T12:33:07.540Z,101754.00
2018-09-26T12:35:48.617Z,101746.00
2018-09-26T12:38:29.389Z,101738.00
2018-09-26T12:41:10.293Z,101728.00
2018-09-26T12:43:50.683Z,101722.00
2018-09-26T12:46:31.074Z,101722.00
2018-09-26T12:49:11.634Z,101718.00
2018-09-26T12:51:53.018Z,101715.00
2018-09-26T12:54:33.577Z,101720.00
2018-09-26T12:57:14.208Z,101716.00
2018-09-26T12:59:55.121Z,101713.00
2018-09-26T13:02:36.457Z,101706.00
2018-09-26T13:05:18.456Z,101701.00
2018-09-26T13:07:59.366Z,101694.00
2018-09-26T13:10:40.445Z,101682.00
2018-09-26T13:13:21.317Z,101679.00
2018-09-26T13:16:02.666Z,101679.00
2018-09-26T13:18:43.533Z,101679.00
2018-09-26T13:21:25.337Z,101677.00
2018-09-26T13:24:06.622Z,101670.00
2018-09-26T13:26:47.680Z,101664.00
2018-09-26T13:29:28.651Z,101661.00
2018-09-26T13:32:09.715Z,101663.00
2018-09-26T13:34:50.997Z,101662.00
2018-09-26T13:37:32.119Z,101661.00
2018-09-26T13:40:13.253Z,101653.00
2018-09-26T13:42:54.266Z,101653.00
2018-09-26T13:45:34.990Z,101653.00
2018-09-26T13:48:15.615Z,101644.00
2018-09-26T13:50:56.727Z,101635.00
2018-09-26T13:53:37.291Z,101629.00
2018-09-26T13:56:17.936Z,101630.00
2018-09-26T13:58:59.031Z,101630.00
2018-09-26T14:01:40.096Z,101631.00
2018-09-26T14:04:21.381Z,101624.00
2018-09-26T14:07:02.904Z,101621.00
2018-09-26T14:09:43.488Z,101623.00
2018-09-26T14:12:24.403Z,101622.00
2018-09-26T14:15:05.250Z,101619.00
2018-09-26T14:17:46.070Z,101619.00
2018-09-26T14:20:48.975Z,101616.00
2018-09-26T14:23:29.869Z,101607.00
2018-09-26T14:26:10.907Z,101601.00
2018-09-26T14:28:52.293Z,101600.00
2018-09-26T14:31:33.009Z,101594.00
2018-09-26T14:34:13.757Z,101575.00
2018-09-26T14:36:54.501Z,101575.00
2018-09-26T14:39:35.379Z,101574.00
2018-09-26T14:42:16.326Z,101569.00
2018-09-26T14:44:57.052Z,101556.00
2018-09-26T14:47:37.966Z,101565.00
2018-09-26T14:50:19.048Z,101559.00
2018-09-26T14:53:00.059Z,101549.00
2018-09-26T14:55:40.957Z,101546.00
2018-09-26T14:58:21.788Z,101548.00
2018-09-26T15:01:02.937Z,101546.00
2018-09-26T15:03:43.976Z,101542.00
2018-09-26T15:06:24.987Z,101543.00
2018-09-26T15:09:07.226Z,101540.00
2018-09-26T15:11:48.129Z,101538.00
2018-09-26T15:14:29.144Z,101544.00
2018-09-26T15:17:10.076Z,101539.00
2018-09-26T15:19:50.991Z,101543.00
2018-09-26T15:22:32.068Z,101534.00
2018-09-26T15:25:13.135Z,101530.00
2018-09-26T15:27:54.029Z,101540.00
2018-09-26T15:30:35.089Z,101543.00
2018-09-26T15:33:15.925Z,101537.00
2018-09-26T15:35:56.808Z,101547.00
2018-09-26T15:38:38.727Z,101551.00
2018-09-26T15:41:19.605Z,101555.00
2018-09-26T15:44:01.095Z,101550.00
2018-09-26T15:46:42.495Z,101550.00
2018-09-26T15:49:23.500Z,101550.00
2018-09-26T15:52:04.928Z,101548.00
2018-09-26T15:54:45.915Z,101544.00
2018-09-26T15:57:26.749Z,101543.00
2018-09-26T16:00:08.685Z,101550.00
2018-09-26T16:02:49.676Z,101547.00
2018-09-26T16:05:30.793Z,101548.00
2018-09-26T16:08:12.354Z,101550.00
2018-09-26T16:10:53.090Z,101557.00
2018-09-26T16:13:34.019Z,101557.00
2018-09-26T16:16:15.021Z,101554.00
2018-09-26T16:18:55.737Z,101553.00
2018-09-26T16:21:36.556Z,101541.00
2018-09-26T16:24:17.172Z,101542.00
2018-09-26T16:26:57.910Z,101540.00
2018-09-26T16:29:38.468Z,101547.00
2018-09-26T16:32:19.471Z,101548.00
2018-09-26T16:35:00.336Z,101549.00
2018-09-26T16:37:41.098Z,101550.00
2018-09-26T16:40:22.282Z,101547.00
2018-09-26T16:43:04.394Z,101549.00
2018-09-26T16:45:45.748Z,101549.00
2018-09-26T16:48:26.931Z,101546.00
2018-09-26T16:51:07.506Z,101543.00
2018-09-26T16:53:48.427Z,101546.00
2018-09-26T16:56:29.422Z,101543.00
2018-09-26T16:59:10.787Z,101547.00
2018-09-26T17:01:51.589Z,101548.00
2018-09-26T17:04:32.416Z,101542.00
2018-09-26T17:07:12.890Z,101536.00
2018-09-26T17:09:54.110Z,101530.00
2018-09-26T17:12:34.696Z,101527.00
2018-09-26T17:15:24.670Z,101531.00
2018-09-26T17:18:05.451Z,101524.00
2018-09-26T17:20:46.656Z,101522.00
2018-09-26T17:23:27.742Z,101523.00
2018-09-26T17:26:10.036Z,101532.00
2018-09-26T17:28:51.449Z,101538.00
2018-09-26T17:31:32.745Z,101543.00
2018-09-26T17:34:14.150Z,101546.00
2018-09-26T17:36:55.864Z,101551.00
2018-09-26T17:39:37.202Z,101549.00
2018-09-26T17:42:19.569Z,101553.00
2018-09-26T17:45:01.219Z,101549.00
2018-09-26T17:47:44.586Z,101558.00
2018-09-26T17:50:25.136Z,101552.00
2018-09-26T17:53:06.302Z,101556.00
2018-09-26T17:55:47.076Z,101557.00
2018-09-26T17:58:28.069Z,101554.00
2018-09-26T18:01:09.041Z,101553.00
2018-09-26T18:03:50.032Z,101556.00
2018-09-26T18:06:31.328Z,101559.00
2018-09-26T18:09:13.942Z,101552.00
2018-09-26T18:11:55.334Z,101557.00
2018-09-26T18:14:36.633Z,101562.00
2018-09-26T18:17:17.865Z,101562.00
2018-09-26T18:19:59.624Z,101560.00
2018-09-26T18:22:40.440Z,101552.00
2018-09-26T18:25:22.053Z,101553.00
2018-09-26T18:28:02.808Z,101554.00
2018-09-26T18:30:43.818Z,101550.00
2018-09-26T18:33:24.757Z,101552.00
2018-09-26T18:36:06.304Z,101552.00
2018-09-26T18:38:47.436Z,101554.00
2018-09-26T18:41:28.883Z,101552.00
2018-09-26T18:44:10.096Z,101545.00
2018-09-26T18:46:51.341Z,101542.00
2018-09-26T18:49:32.674Z,101549.00
2018-09-26T18:52:13.631Z,101545.00
2018-09-26T18:54:54.404Z,101554.00
2018-09-26T18:57:37.261Z,101552.00
2018-09-26T19:00:19.161Z,101553.00
2018-09-26T19:02:59.920Z,101550.00
2018-09-26T19:05:40.966Z,101544.00
2018-09-26T19:08:21.658Z,101545.00
2018-09-26T19:11:03.041Z,101544.00
2018-09-26T19:13:44.058Z,101543.00
2018-09-26T19:16:24.718Z,101550.00
2018-09-26T19:19:06.821Z,101549.00
2018-09-26T19:21:47.896Z,101547.00
2018-09-26T19:24:28.689Z,101549.00
2018-09-26T19:27:12.633Z,101556.00
2018-09-26T19:29:53.889Z,101559.00
2018-09-26T19:32:34.937Z,101563.00
2018-09-26T19:35:16.213Z,101562.00
2018-09-26T19:37:57.023Z,101563.00
2018-09-26T19:40:38.513Z,101559.00
2018-09-26T19:43:20.156Z,101564.00
2018-09-26T19:46:00.962Z,101566.00
2018-09-26T19:48:42.263Z,101569.00
2018-09-26T19:51:23.079Z,101570.00
2018-09-26T19:54:03.993Z,101572.00
2018-09-26T19:56:45.195Z,101576.00
2018-09-26T19:59:26.351Z,101573.00
2018-09-26T20:02:08.045Z,101569.00
2018-09-26T20:04:49.070Z,101569.00
2018-09-26T20:07:29.926Z,101574.00
2018-09-26T20:10:12.560Z,101581.00
2018-09-26T20:12:54.083Z,101579.00
2018-09-26T20:15:35.545Z,101574.00
2018-09-26T20:18:16.950Z,101576.00
2018-09-26T20:20:57.694Z,101580.00
2018-09-26T20:23:38.899Z,101582.00
2018-09-26T20:26:19.817Z,101584.00
2018-09-26T20:29:00.605Z,101572.00
2018-09-26T20:31:41.620Z,101577.00
2018-09-26T20:34:22.433Z,101575.00
2018-09-26T20:37:04.802Z,101573.00
2018-09-26T20:39:46.081Z,101567.00
2018-09-26T20:42:27.220Z,101573.00
2018-09-26T20:45:08.543Z,101579.00
2018-09-26T20:47:49.848Z,101579.00
2018-09-26T20:50:30.789Z,101578.00
2018-09-26T20:53:11.871Z,101586.00
2018-09-26T20:55:53.109Z,101586.00
2018-09-26T20:58:34.738Z,101587.00
2018-09-26T21:01:15.562Z,101587.00
2018-09-26T21:03:56.436Z,101577.00
2018-09-26T21:06:37.954Z,101578.00
2018-09-26T21:09:18.800Z,101586.00
2018-09-26T21:12:00.338Z,101583.00
2018-09-26T21:14:41.265Z,101581.00
2018-09-26T21:17:22.374Z,101585.00
2018-09-26T21:20:03.772Z,101582.00
2018-09-26T21:22:44.840Z,101577.00
2018-09-26T21:25:25.626Z,101583.00
2018-09-26T21:28:06.677Z,101587.00
2018-09-26T21:30:48.187Z,101588.00
2018-09-26T21:33:29.573Z,101584.00
2018-09-26T21:36:11.127Z,101574.00
2018-09-26T21:38:52.528Z,101573.00
2018-09-26T21:41:33.283Z,101582.00
2018-09-26T21:44:14.258Z,101581.00
2018-09-26T21:46:55.034Z,101579.00
2018-09-26T21:49:35.583Z,101579.00
2018-09-26T21:52:16.392Z,101579.00
2018-09-26T21:54:58.047Z,101578.00
2018-09-26T21:57:38.917Z,101579.00
2018-09-26T22:00:19.923Z,101578.00
2018-09-26T22:03:00.973Z,101582.00
2018-09-26T22:05:41.774Z,101581.00
2018-09-26T22:08:22.970Z,101580.00
2018-09-26T22:11:04.184Z,101581.00
2018-09-26T22:13:45.162Z,101578.00
2018-09-26T22:16:26.625Z,101575.00
2018-09-26T22:19:08.033Z,101568.00
2018-09-26T22:21:49.446Z,101569.00
2018-09-26T22:24:30.309Z,101573.00
2018-09-26T22:27:11.331Z,101565.00
2018-09-26T22:29:52.295Z,101562.00
2018-09-26T22:32:32.789Z,101558.00
2018-09-26T22:35:13.795Z,101546.00
2018-09-26T22:37:54.268Z,101548.00
2018-09-26T22:40:35.945Z,101534.00
2018-09-26T22:43:16.541Z,101535.00
2018-09-26T22:45:57.821Z,101533.00
2018-09-26T22:48:38.264Z,101526.00
2018-09-26T22:51:19.357Z,101517.00
2018-09-26T22:54:00.294Z,101529.00
2018-09-26T22:56:41.675Z,101526.00
2018-09-26T22:59:22.590Z,101531.00
2018-09-26T23:02:02.970Z,101532.00
2018-09-26T23:04:43.896Z,101530.00
2018-09-26T23:07:24.856Z,101530.00
2018-09-26T23:10:06.489Z,101518.00
2018-09-26T23:12:47.056Z,101520.00
2018-09-26T23:15:28.030Z,101511.00
2018-09-26T23:18:08.635Z,101511.00
2018-09-26T23:20:49.323Z,101509.00
2018-09-26T23:23:30.099Z,101504.00
2018-09-26T23:26:10.721Z,101501.00
2018-09-26T23:28:51.245Z,101497.00
2018-09-26T23:31:32.326Z,101507.00
2018-09-26T23:34:13.088Z,101508.00
2018-09-26T23:36:54.239Z,101500.00
2018-09-26T23:39:34.959Z,101498.00
2018-09-26T23:42:15.734Z,101500.00
2018-09-26T23:44:56.127Z,101496.00
2018-09-26T23:47:36.799Z,101495.00
2018-09-26T23:50:17.601Z,101495.00
2018-09-26T23:52:58.554Z,101501.00
2018-09-26T23:55:38.966Z,101498.00
2018-09-26T23:58:19.804Z,101501.00
